Time;durP1;ratioP1;P1;durP2;ratioP2;P2;SDS_P1;SDS_P2;PMS_P1;PMS_P2;Temp;Humidity;BMP_temperature;BMP_pressure;BME280_temperature;BME280_humidity;BME280_pressure;Samples;Min_cycle;Max_cycle;Signal;HPM_P1;HPM_P2
2022/01/24 00:04:34;;;;;;;6.22;5.40;;;;;;;17.33;62.53;103593.84;5721658;23;20039;-80
2022/01/24 00:07:04;;;;;;;7.05;5.35;;;;;;;17.32;61.94;103598.19;4955141;28;20096;-82
2022/01/24 00:09:36;;;;;;;6.30;4.53;;;;;;;17.32;62.69;103597.31;4942710;29;20091;-82
2022/01/24 00:12:14;;;;;;;5.97;5.38;;;;;;;17.34;62.51;103600.84;4943129;28;20011;-83
2022/01/24 00:15:37;;;;;;;5.47;4.97;;;;;;;17.32;62.63;103607.72;4958545;29;20098;-82
2022/01/24 00:28:17;;;;;;;5.55;4.97;;;;;;;17.30;61.73;103594.63;4960136;28;20194;-83
2022/01/24 00:30:46;;;;;;;5.18;4.68;;;;;;;17.30;62.28;103594.63;4959487;28;20028;-83
2022/01/24 00:33:15;;;;;;;6.35;5.07;;;;;;;17.29;62.13;103592.88;4959775;28;20553;-82
2022/01/24 00:35:41;;;;;;;6.03;5.20;;;;;;;17.30;61.98;103592.03;4959480;29;20071;-83
2022/01/24 00:38:09;;;;;;;6.28;5.00;;;;;;;17.29;61.90;103590.28;4959948;28;20028;-84
2022/01/24 00:40:40;;;;;;;5.57;4.97;;;;;;;17.31;61.35;103590.31;4962196;28;20059;-81
2022/01/24 00:43:26;;;;;;;5.97;5.38;;;;;;;17.30;61.95;103588.56;4963033;29;20024;-83
2022/01/24 00:46:06;;;;;;;5.95;5.03;;;;;;;17.28;61.77;103593.69;4965651;29;20095;-83
2022/01/24 00:54:42;;;;;;;5.13;4.63;;;;;;;17.28;61.37;103585.88;4964954;29;20059;-82
2022/01/24 00:56:49;;;;;;;5.57;5.00;;;;;;;17.27;61.81;103577.22;4965023;29;20007;-82
2022/01/24 00:59:15;;;;;;;5.40;4.68;;;;;;;17.29;61.51;103585.06;4964471;29;20114;-82
2022/01/24 01:01:40;;;;;;;5.85;4.70;;;;;;;17.28;61.54;103589.38;4957042;29;20063;-80
2022/01/24 01:04:05;;;;;;;4.82;4.32;;;;;;;17.28;60.76;103591.97;4931056;29;20036;-80
2022/01/24 01:06:31;;;;;;;7.22;4.90;;;;;;;17.29;61.91;103592.88;4915202;29;20039;-81
2022/01/24 01:19:52;;;;;;;4.97;4.30;;;;;;;17.28;60.85;103597.19;4960492;29;20512;-82
2022/01/24 01:22:17;;;;;;;5.10;4.60;;;;;;;17.29;60.47;103590.28;4924516;29;20039;-82
2022/01/24 01:24:50;;;;;;;5.57;4.75;;;;;;;17.28;60.93;103588.50;4936707;29;20103;-81
2022/01/24 01:27:20;;;;;;;4.90;4.43;;;;;;;17.28;60.93;103578.09;4951556;29;20035;-81
2022/01/24 01:29:58;;;;;;;5.18;4.68;;;;;;;17.28;61.10;103578.09;4938173;29;20096;-81
2022/01/24 01:37:52;;;;;;;5.82;4.80;;;;;;;17.28;60.51;103584.16;4950577;29;20035;-81
2022/01/24 01:52:16;;;;;;;5.32;4.63;;;;;;;17.29;60.53;103587.69;4937069;29;20038;-81
2022/01/24 01:54:36;;;;;;;5.10;4.60;;;;;;;17.28;60.46;103588.50;4946768;29;20038;-81
2022/01/24 01:57:02;;;;;;;4.97;4.47;;;;;;;17.28;60.60;103588.50;4947771;29;20027;-81
2022/01/24 01:59:28;;;;;;;4.93;4.28;;;;;;;17.26;60.62;103579.75;4929914;29;20040;-80
2022/01/24 02:01:54;;;;;;;5.10;4.60;;;;;;;17.26;60.54;103574.53;4929601;29;20035;-81
2022/01/24 02:04:19;;;;;;;5.00;4.50;;;;;;;17.25;59.77;103573.66;4939848;29;20051;-81
2022/01/24 02:06:45;;;;;;;4.60;4.20;;;;;;;17.25;60.41;103564.97;4922737;29;20030;-81
2022/01/24 02:09:12;;;;;;;5.22;3.95;;;;;;;17.26;60.51;103569.34;4938349;29;20032;-81
2022/01/24 02:11:38;;;;;;;5.57;4.50;;;;;;;17.25;60.27;103563.25;4912955;29;20040;-80
2022/01/24 02:14:08;;;;;;;5.20;4.70;;;;;;;17.26;60.49;103566.72;4923388;29;20031;-81
2022/01/24 02:22:04;;;;;;;4.88;4.38;;;;;;;17.25;60.15;103554.56;4942119;29;20035;-81
2022/01/24 02:24:41;;;;;;;;;;;;;;;17.26;60.15;103551.13;4942923;29;20038;-81
2022/01/24 02:27:08;;;;;;;5.43;4.18;;;;;;;17.25;60.13;103554.56;4943315;29;19921;-81
2022/01/24 02:32:16;;;;;;;4.53;3.97;;;;;;;17.23;60.46;103546.69;4948152;29;20489;-81
2022/01/24 02:34:44;;;;;;;4.63;4.22;;;;;;;17.24;60.48;103555.38;4944864;29;20039;-81
2022/01/24 02:37:18;;;;;;;4.15;3.72;;;;;;;17.24;59.97;103550.19;4929866;29;20082;-81
2022/01/24 02:39:48;;;;;;;4.88;4.47;;;;;;;17.23;59.83;103551.91;4931260;29;20059;-80
2022/01/24 02:52:58;;;;;;;5.55;4.10;;;;;;;17.23;59.54;103544.09;4946371;29;20156;-80
2022/01/24 02:55:23;;;;;;;4.28;3.88;;;;;;;17.24;59.91;103542.38;4946690;29;20039;-81
2022/01/24 02:57:49;;;;;;;4.53;4.13;;;;;;;17.23;59.40;103541.50;4942894;29;20816;-80
2022/01/24 03:00:14;;;;;;;4.75;4.22;;;;;;;17.21;59.54;103545.75;4924574;29;20032;-81
2022/01/24 03:02:40;;;;;;;4.82;4.30;;;;;;;17.22;59.05;103541.44;4916550;29;20127;-80
2022/01/24 03:05:05;;;;;;;4.82;4.43;;;;;;;17.21;59.91;103543.16;4946453;29;20051;-80
2022/01/24 03:07:32;;;;;;;5.03;4.57;;;;;;;17.22;59.90;103544.94;4918037;29;20036;-80
2022/01/24 03:09:57;;;;;;;4.57;4.18;;;;;;;17.22;59.72;103536.22;4951649;29;20095;-80
2022/01/24 03:12:42;;;;;;;5.45;4.47;;;;;;;17.21;59.60;103542.28;4918488;29;20028;-80
2022/01/24 03:15:10;;;;;;;4.45;4.05;;;;;;;17.21;59.86;103540.53;4936353;29;20063;-81
2022/01/24 03:17:36;;;;;;;5.40;4.50;;;;;;;17.22;59.75;103531.03;4951444;29;20111;-81
2022/01/24 03:20:03;;;;;;;5.32;4.82;;;;;;;17.23;59.42;103532.81;4935512;29;20098;-81
2022/01/24 03:22:28;;;;;;;5.32;4.82;;;;;;;17.24;59.55;103535.44;4940871;29;20023;-80
2022/01/24 03:24:53;;;;;;;4.82;4.32;;;;;;;17.25;59.21;103533.75;4907882;29;20055;-80
2022/01/24 03:27:19;;;;;;;4.88;4.13;;;;;;;17.27;59.37;103534.69;4923962;29;20038;-80
2022/01/24 03:29:45;;;;;;;6.53;4.28;;;;;;;17.27;59.05;103527.75;4923756;29;20035;-80
2022/01/24 03:32:10;;;;;;;4.30;3.90;;;;;;;17.27;59.27;103527.75;4908400;29;20036;-81
2022/01/24 03:34:35;;;;;;;4.95;4.47;;;;;;;17.31;58.66;103525.25;4928124;29;20069;-81
2022/01/24 03:37:01;;;;;;;4.50;4.10;;;;;;;17.30;58.92;103534.78;4930822;29;20086;-81
2022/01/24 03:39:26;;;;;;;4.47;4.07;;;;;;;17.30;59.35;103533.91;4905222;29;20061;-80
2022/01/24 03:41:52;;;;;;;4.85;4.35;;;;;;;17.30;59.14;103534.78;4905223;29;20063;-81
2022/01/24 03:44:19;;;;;;;4.22;3.80;;;;;;;17.30;58.89;103529.56;4920921;29;20039;-81
2022/01/24 03:46:59;;;;;;;4.45;4.05;;;;;;;17.30;58.98;103524.38;4937034;29;20051;-81
2022/01/24 03:49:45;;;;;;;4.75;3.90;;;;;;;17.28;57.85;103518.22;4939896;29;20574;-81
2022/01/24 03:52:18;;;;;;;5.35;3.80;;;;;;;17.27;58.71;103525.16;4948171;29;20027;-82
2022/01/24 03:54:45;;;;;;;4.40;4.00;;;;;;;17.28;59.17;103523.44;4949900;29;20043;-81
2022/01/24 03:57:13;;;;;;;4.32;3.92;;;;;;;17.27;59.14;103525.16;4944489;29;20055;-82
2022/01/24 03:59:39;;;;;;;3.83;3.45;;;;;;;17.25;59.18;103521.63;4928046;29;20056;-82
2022/01/24 04:02:06;;;;;;;5.28;4.18;;;;;;;17.26;59.37;103517.28;4941776;29;20035;-82
2022/01/24 04:04:31;;;;;;;4.78;4.15;;;;;;;17.25;59.42;103521.63;4923313;29;20047;-81
2022/01/24 04:06:57;;;;;;;4.53;4.13;;;;;;;17.25;58.88;103521.63;4924350;29;20489;-82
2022/01/24 04:09:22;;;;;;;4.25;3.85;;;;;;;17.26;59.17;103525.97;4924800;29;20039;-82
2022/01/24 04:11:52;;;;;;;4.45;4.05;;;;;;;17.25;59.55;103533.75;4940763;29;20028;-82
2022/01/24 04:22:15;;;;;;;4.13;3.70;;;;;;;17.24;59.08;103527.63;4937208;29;20438;-80
2022/01/24 04:24:41;;;;;;;;;;;;;;;17.24;59.28;103524.16;4921273;29;20436;-80
2022/01/24 04:27:08;;;;;;;4.50;4.10;;;;;;;17.25;59.30;103526.81;4919891;29;20365;-80
2022/01/24 04:29:34;;;;;;;4.20;3.80;;;;;;;17.22;59.13;103520.59;4920351;29;20032;-80
2022/01/24 04:32:01;;;;;;;4.20;3.78;;;;;;;17.24;58.73;103514.63;4939689;29;20024;-80
2022/01/24 04:34:27;;;;;;;4.68;4.25;;;;;;;17.24;58.96;103516.34;4950678;29;20044;-82
2022/01/24 04:36:52;;;;;;;4.85;4.35;;;;;;;17.23;58.98;103512.88;4943968;29;20385;-82
2022/01/24 04:39:18;;;;;;;4.30;3.90;;;;;;;17.24;59.01;103521.53;4939959;29;20471;-82
2022/01/24 04:41:47;;;;;;;4.60;4.20;;;;;;;17.23;59.25;103509.38;4939999;29;20479;-82
2022/01/24 04:54:56;;;;;;;4.78;4.28;;;;;;;17.26;58.34;103505.16;4911323;29;20050;-82
2022/01/24 04:57:25;;;;;;;4.50;4.10;;;;;;;17.27;57.98;103504.34;4909987;29;20118;-81
2022/01/24 04:59:52;;;;;;;4.30;3.90;;;;;;;17.30;58.10;103497.47;4944056;29;20035;-80
2022/01/24 05:02:20;;;;;;;4.32;3.92;;;;;;;17.28;58.61;103495.69;4936987;29;20055;-81
2022/01/24 05:04:45;;;;;;;4.38;4.00;;;;;;;17.30;57.66;103494.88;4920331;29;20055;-81
2022/01/24 05:07:11;;;;;;;4.68;4.28;;;;;;;17.31;58.00;103496.63;4937089;29;20383;-80
2022/01/24 05:09:42;;;;;;;4.40;4.00;;;;;;;17.31;58.45;103497.53;4937920;29;20553;-81
2022/01/24 05:12:18;;;;;;;4.65;4.25;;;;;;;17.32;58.11;103493.19;4954578;29;20047;-84
2022/01/24 05:24:46;;;;;;;4.82;4.32;;;;;;;17.50;56.68;103503.34;4927264;29;20039;-85
2022/01/24 05:27:41;;;;;;;4.18;3.78;;;;;;;17.50;55.90;103505.94;4954219;29;20031;-84
2022/01/24 05:30:28;;;;;;;4.25;3.85;;;;;;;17.51;56.09;103506.00;4957822;29;20110;-84
2022/01/24 05:33:26;;;;;;;4.45;3.95;;;;;;;17.52;56.52;103506.88;4956918;29;20119;-84
2022/01/24 05:40:06;;;;;;;4.10;3.70;;;;;;;17.54;56.40;103508.69;4955022;29;20055;-84
2022/01/24 05:52:17;;;;;;;4.55;4.05;;;;;;;17.58;56.21;103512.28;5281818;23;20047;-85
2022/01/24 05:54:46;;;;;;;4.65;4.25;;;;;;;17.56;55.82;103512.22;4981674;28;20038;-85
2022/01/24 06:07:35;;;;;;;8.50;5.53;;;;;;;17.58;55.90;103509.69;5524852;23;20114;-81
2022/01/24 06:10:00;;;;;;;18.95;7.47;;;;;;;17.59;56.64;103509.72;5781838;23;20051;-84
2022/01/24 06:12:27;;;;;;;16.83;7.65;;;;;;;17.60;56.50;103508.03;4953062;29;20433;-81
2022/01/24 06:14:52;;;;;;;12.13;6.53;;;;;;;17.59;56.90;103511.44;4926891;29;20050;-80
2022/01/24 06:17:18;;;;;;;15.82;6.93;;;;;;;17.58;56.98;103510.56;4951284;29;20063;-82
2022/01/24 06:19:44;;;;;;;12.82;6.65;;;;;;;17.57;56.77;103505.28;4950941;29;20036;-80
2022/01/24 06:22:13;;;;;;;12.07;7.07;;;;;;;17.57;57.18;103507.91;4953626;29;20061;-82
2022/01/24 06:24:39;;;;;;;11.98;6.63;;;;;;;17.57;56.84;103515.72;4935568;29;20042;-81
2022/01/24 06:27:04;;;;;;;11.75;6.43;;;;;;;17.56;56.82;103508.75;4952416;29;20027;-81
2022/01/24 06:29:30;;;;;;;12.90;6.47;;;;;;;17.57;56.76;103506.22;4946607;29;20082;-81
2022/01/24 06:31:55;;;;;;;14.18;6.72;;;;;;;17.57;56.75;103518.31;4945434;29;20476;-82
2022/01/24 06:34:20;;;;;;;10.43;6.45;;;;;;;17.58;56.76;103509.69;4945176;29;20160;-81
2022/01/24 06:36:46;;;;;;;9.13;5.85;;;;;;;17.58;56.92;103517.50;4945283;29;20032;-81
2022/01/24 06:39:13;;;;;;;12.75;6.25;;;;;;;17.59;56.90;103529.66;4961655;28;20038;-81
2022/01/24 06:41:41;;;;;;;10.73;5.95;;;;;;;17.58;56.44;103522.72;4945910;29;20031;-81
2022/01/24 06:44:06;;;;;;;8.55;5.85;;;;;;;17.58;57.04;103525.31;4945608;29;20035;-81
2022/01/24 06:46:31;;;;;;;7.43;5.40;;;;;;;17.59;56.94;103524.47;4930284;29;20102;-80
2022/01/24 06:48:57;;;;;;;10.80;6.07;;;;;;;17.58;57.02;103526.19;4930606;29;20035;-81
2022/01/24 06:51:23;;;;;;;8.68;5.88;;;;;;;17.58;56.55;103525.31;4961537;29;20038;-81
2022/01/24 06:53:49;;;;;;;9.00;5.68;;;;;;;17.59;56.45;103524.47;4945411;29;20035;-81
2022/01/24 06:56:15;;;;;;;9.20;6.22;;;;;;;17.60;56.58;103528.84;4945463;29;20124;-81
2022/01/24 06:58:41;;;;;;;8.23;5.40;;;;;;;17.60;56.54;103526.25;4957902;29;20034;-81
2022/01/24 07:01:07;;;;;;;7.13;5.13;;;;;;;17.59;56.54;103527.94;4960420;28;20035;-81
2022/01/24 07:03:33;;;;;;;8.20;5.30;;;;;;;17.59;56.89;103533.16;4946272;29;20031;-81
2022/01/24 07:05:59;;;;;;;11.15;5.78;;;;;;;17.59;56.75;103534.88;4969822;28;20446;-80
2022/01/24 07:08:24;;;;;;;8.50;5.68;;;;;;;17.60;56.51;103537.53;4969338;28;20027;-81
2022/01/24 07:10:50;;;;;;;7.85;5.35;;;;;;;17.61;56.44;103543.63;4960616;28;20475;-81
2022/01/24 07:13:16;;;;;;;7.05;5.43;;;;;;;17.61;56.64;103543.63;4960772;28;20035;-81
2022/01/24 07:15:51;;;;;;;8.48;5.47;;;;;;;17.61;56.54;103547.09;4960527;28;20031;-81
2022/01/24 07:21:05;;;;;;;6.65;5.28;;;;;;;17.61;56.60;103546.22;4965938;28;20034;-83
2022/01/24 07:23:31;;;;;;;8.07;5.60;;;;;;;17.64;56.09;103554.16;4962797;29;20038;-83
2022/01/24 07:25:57;;;;;;;8.25;5.32;;;;;;;17.65;56.11;103550.72;4946638;29;20042;-83
2022/01/24 07:28:22;;;;;;;8.02;5.70;;;;;;;17.65;56.27;103553.31;4945275;29;20032;-82
2022/01/24 07:30:48;;;;;;;8.18;5.10;;;;;;;17.64;56.07;103560.25;4947139;29;20122;-82
2022/01/24 07:33:14;;;;;;;8.18;5.40;;;;;;;17.63;56.34;103555.84;4963083;28;20023;-83
2022/01/24 07:35:40;;;;;;;7.47;5.32;;;;;;;17.65;56.23;103563.72;4960609;29;20112;-82
2022/01/24 07:38:06;;;;;;;6.63;5.00;;;;;;;17.66;56.23;103555.09;4944736;29;20035;-81
2022/01/24 07:40:38;;;;;;;7.30;5.20;;;;;;;17.64;55.93;103556.75;4946043;29;20478;-82
2022/01/24 07:43:11;;;;;;;6.25;5.00;;;;;;;17.65;55.99;103554.19;4946928;29;20031;-82
2022/01/24 07:45:37;;;;;;;;;;;;;;;17.65;55.77;103553.31;4946374;29;20023;-82
2022/01/24 07:48:04;;;;;;;6.47;5.10;;;;;;;17.66;56.13;103560.31;4964391;29;19911;-79
2022/01/24 07:50:30;;;;;;;8.00;4.93;;;;;;;17.66;55.44;103560.31;4960748;28;20121;-82
2022/01/24 07:52:56;;;;;;;6.65;5.00;;;;;;;17.67;55.94;103554.25;4959940;28;20078;-82
2022/01/24 07:55:22;;;;;;;6.82;5.07;;;;;;;17.67;55.92;103562.06;4942816;29;20486;-82
2022/01/24 07:57:48;;;;;;;5.90;5.15;;;;;;;17.67;55.77;103557.72;4943372;29;20126;-82
2022/01/24 08:00:15;;;;;;;5.72;5.10;;;;;;;17.67;55.41;103556.84;4958993;28;20027;-82
2022/01/24 08:02:41;;;;;;;5.30;4.72;;;;;;;17.68;55.76;103556.91;4960582;28;20039;-82
2022/01/24 08:05:08;;;;;;;6.15;5.07;;;;;;;17.69;55.46;103552.59;4960892;28;20051;-82
2022/01/24 08:07:34;;;;;;;5.43;4.65;;;;;;;17.69;55.39;103563.00;4962176;28;20082;-82
2022/01/24 08:09:59;;;;;;;6.35;5.22;;;;;;;17.70;55.25;103562.16;4927702;29;20035;-82
2022/01/24 08:12:25;;;;;;;7.32;5.13;;;;;;;17.72;54.74;103565.69;4958589;29;20034;-82
2022/01/24 08:14:50;;;;;;;5.72;4.68;;;;;;;17.71;55.02;103565.66;4942928;29;20470;-82
2022/01/24 08:17:16;;;;;;;6.47;5.07;;;;;;;17.72;55.45;103570.03;4944290;29;20043;-83
2022/01/24 08:19:41;;;;;;;5.68;5.07;;;;;;;17.71;55.36;103571.75;4928812;29;20028;-81
2022/01/24 08:22:06;;;;;;;6.30;4.97;;;;;;;17.72;54.75;103570.91;4945969;29;20045;-82
2022/01/24 08:24:32;;;;;;;5.28;4.65;;;;;;;17.74;54.87;103584.00;4945037;29;20038;-82
2022/01/24 08:26:58;;;;;;;6.20;5.20;;;;;;;17.73;54.96;103580.50;4961179;29;20106;-82
2022/01/24 08:29:23;;;;;;;6.38;5.10;;;;;;;17.73;54.70;103577.91;4946157;29;20093;-81
2022/01/24 08:31:49;;;;;;;6.13;4.75;;;;;;;17.74;55.12;103578.78;4950908;29;20098;-82
2022/01/24 08:34:14;;;;;;;5.82;4.65;;;;;;;17.74;55.29;103578.78;4960855;28;20033;-82
2022/01/24 08:36:39;;;;;;;4.97;4.35;;;;;;;17.74;55.22;103576.19;4943948;29;20035;-82
2022/01/24 08:39:08;;;;;;;5.50;4.88;;;;;;;17.74;54.95;103569.22;4944605;29;20031;-81
2022/01/24 08:45:41;;;;;;;5.65;4.75;;;;;;;17.77;54.61;103573.66;4959319;29;20466;-82
2022/01/24 08:47:07;;;;;;;5.78;4.55;;;;;;;17.77;54.94;103571.97;4960305;29;20038;-82
2022/01/24 08:49:32;;;;;;;5.43;4.78;;;;;;;17.77;55.06;103558.94;4944109;29;20031;-82
2022/01/24 08:52:01;;;;;;;5.53;4.65;;;;;;;17.78;54.94;103562.41;4944374;29;20023;-82
2022/01/24 08:54:27;;;;;;;5.07;4.57;;;;;;;17.79;54.75;103561.56;4944662;29;20493;-82
2022/01/24 08:56:53;;;;;;;6.22;4.50;;;;;;;17.79;54.76;103572.91;4935473;29;20031;-82
2022/01/24 08:59:19;;;;;;;5.28;4.47;;;;;;;17.82;54.80;103573.03;4973120;28;20047;-82
2022/01/24 09:01:47;;;;;;;5.30;4.38;;;;;;;17.80;54.35;103565.97;4954601;29;20031;-82
2022/01/24 09:04:12;;;;;;;5.53;4.55;;;;;;;17.81;54.55;103576.44;4951190;29;20059;-82
2022/01/24 09:06:38;;;;;;;5.07;4.57;;;;;;;17.83;54.48;103571.28;4950787;29;20126;-83
2022/01/24 09:09:05;;;;;;;4.90;4.45;;;;;;;17.82;54.33;103573.03;4968703;28;20386;-83
2022/01/24 09:11:35;;;;;;;5.05;4.55;;;;;;;17.83;54.58;103572.22;4969268;28;20051;-81
2022/01/24 09:14:03;;;;;;;5.35;4.70;;;;;;;17.84;54.30;103578.28;4951779;29;20474;-82
2022/01/24 09:16:28;;;;;;;4.95;4.45;;;;;;;17.84;54.31;103578.28;4966268;28;20063;-82
2022/01/24 09:18:54;;;;;;;5.18;4.50;;;;;;;17.84;54.61;103583.50;4965078;28;20094;-82
2022/01/24 09:21:22;;;;;;;5.28;4.78;;;;;;;17.84;54.27;103584.38;4965952;28;20031;-82
2022/01/24 09:23:47;;;;;;;5.50;4.90;;;;;;;17.84;54.55;103586.97;4966518;28;20470;-82
2022/01/24 09:26:13;;;;;;;5.70;5.15;;;;;;;17.86;54.40;103594.84;4964735;29;20037;-83
2022/01/24 09:28:39;;;;;;;5.00;4.50;;;;;;;17.85;54.48;103588.75;4963960;28;20046;-82
2022/01/24 09:31:05;;;;;;;5.20;4.68;;;;;;;17.86;54.36;103595.75;4963641;28;20026;-82
2022/01/24 09:33:31;;;;;;;6.20;4.80;;;;;;;17.86;54.28;103593.13;4963057;28;20540;-82
2022/01/24 09:35:59;;;;;;;5.05;4.55;;;;;;;17.87;54.47;103591.41;4963561;28;20089;-82
2022/01/24 09:38:30;;;;;;;5.90;5.00;;;;;;;17.86;54.22;103582.72;4949714;29;20027;-82
2022/01/24 09:40:56;;;;;;;6.32;4.50;;;;;;;17.87;54.11;103584.47;4956092;29;20042;-82
2022/01/24 09:43:22;;;;;;;5.68;4.85;;;;;;;17.91;54.09;103584.59;4967826;28;20470;-82
2022/01/24 09:45:50;;;;;;;6.30;5.32;;;;;;;17.89;54.03;103581.91;4948539;29;20066;-82
2022/01/24 09:48:16;;;;;;;5.50;4.93;;;;;;;17.92;53.73;103581.13;4948741;29;20024;-82
2022/01/24 09:50:42;;;;;;;6.25;4.85;;;;;;;17.91;53.89;103587.19;4933620;29;20089;-83
2022/01/24 09:53:08;;;;;;;5.47;4.97;;;;;;;17.91;53.40;103587.19;4964499;28;20019;-81
2022/01/24 09:55:34;;;;;;;5.65;5.10;;;;;;;17.93;53.57;103583.78;4964645;29;20027;-83
2022/01/24 09:58:00;;;;;;;5.45;4.75;;;;;;;17.92;53.97;103589.84;4965447;28;20027;-83
2022/01/24 10:00:27;;;;;;;5.13;4.63;;;;;;;17.93;53.63;103585.53;4948512;29;20038;-82
2022/01/24 10:02:54;;;;;;;5.82;5.22;;;;;;;17.91;53.75;103592.41;4964103;28;20118;-82
2022/01/24 10:05:27;;;;;;;5.97;4.93;;;;;;;17.90;53.74;103591.53;4931491;29;20031;-79
2022/01/24 10:07:58;;;;;;;5.40;4.90;;;;;;;17.87;54.00;103584.47;4959081;28;20090;-79
2022/01/24 10:10:30;;;;;;;5.55;5.05;;;;;;;17.87;54.35;103591.41;4960169;28;20045;-79
2022/01/24 10:18:09;;;;;;;6.97;5.53;;;;;;;17.85;54.02;103590.47;4946192;29;20038;-79
2022/01/24 10:20:38;;;;;;;6.90;5.53;;;;;;;17.85;54.10;103588.75;4959686;29;20090;-79
2022/01/24 10:23:13;;;;;;;6.40;5.80;;;;;;;17.85;54.01;103596.56;4959731;28;20035;-78
2022/01/24 10:25:50;;;;;;;6.40;5.65;;;;;;;17.84;54.22;103600.00;4959778;28;20031;-79
2022/01/24 10:28:38;;;;;;;7.03;5.88;;;;;;;17.84;54.17;103597.41;4959574;28;20019;-79
2022/01/24 10:31:08;;;;;;;6.95;6.18;;;;;;;17.83;54.24;103595.66;4959289;29;20062;-79
2022/01/24 10:33:59;;;;;;;6.57;5.95;;;;;;;17.84;54.04;103597.41;4958914;28;20489;-78
2022/01/24 10:36:38;;;;;;;6.28;5.68;;;;;;;17.84;54.29;103591.31;4959110;28;20474;-80
2022/01/24 10:44:48;;;;;;;6.38;5.78;;;;;;;17.83;54.08;103584.31;4960523;28;20038;-80
2022/01/24 10:47:14;;;;;;;8.13;6.35;;;;;;;17.83;54.12;103589.53;4960886;28;20027;-80
2022/01/24 10:49:40;;;;;;;7.63;6.68;;;;;;;17.83;54.17;103598.25;4959577;28;20031;-80
2022/01/24 10:52:20;;;;;;;7.53;6.57;;;;;;;17.83;53.94;103598.25;4943476;29;20034;-80
2022/01/24 10:54:53;;;;;;;6.90;6.00;;;;;;;17.83;54.11;103599.94;4958723;28;20038;-79
2022/01/24 10:57:28;;;;;;;7.00;6.30;;;;;;;17.82;54.01;103590.38;4958678;28;20026;-79
2022/01/24 11:00:05;;;;;;;7.28;6.53;;;;;;;17.83;53.96;103592.13;4942863;29;20031;-80
2022/01/24 11:02:40;;;;;;;7.38;6.68;;;;;;;17.82;53.94;103596.47;4958740;28;20433;-79
2022/01/24 11:05:28;;;;;;;7.45;6.75;;;;;;;17.82;53.97;103585.16;4959016;28;20030;-79
2022/01/24 11:08:09;;;;;;;7.57;6.43;;;;;;;17.82;53.93;103586.03;4959338;28;20015;-78
2022/01/24 11:10:41;;;;;;;7.30;6.60;;;;;;;17.82;54.20;103572.16;4959309;28;20051;-79
2022/01/24 11:13:07;;;;;;;7.40;6.70;;;;;;;17.82;53.91;103573.03;4959097;28;20117;-79
2022/01/24 11:15:34;;;;;;;7.43;6.63;;;;;;;17.82;53.97;103572.16;4959244;28;20043;-79
2022/01/24 11:18:01;;;;;;;7.90;7.10;;;;;;;17.81;54.12;103565.13;4958322;28;20114;-79
2022/01/24 11:20:33;;;;;;;8.10;7.30;;;;;;;17.82;53.98;103569.53;4927566;29;20035;-79
2022/01/24 11:23:02;;;;;;;7.55;6.70;;;;;;;17.83;53.97;103579.09;4944096;29;20027;-79
2022/01/24 11:25:31;;;;;;;8.20;7.40;;;;;;;17.82;53.82;103564.31;4960162;28;20118;-79
2022/01/24 11:27:57;;;;;;;8.07;7.28;;;;;;;17.83;53.56;103569.59;4966504;28;20047;-80
2022/01/24 11:30:29;;;;;;;7.40;6.70;;;;;;;17.84;53.91;103565.28;4966395;28;20034;-80
2022/01/24 11:33:35;;;;;;;7.63;6.93;;;;;;;17.84;53.21;103560.94;4967942;29;20031;-81
2022/01/24 11:36:02;;;;;;;8.20;7.40;;;;;;;17.87;53.55;103560.16;4955693;29;20087;-80
2022/01/24 11:38:42;;;;;;;8.15;7.35;;;;;;;17.89;53.24;103556.75;4958858;29;20039;-81
2022/01/24 11:41:21;;;;;;;8.57;7.72;;;;;;;17.90;53.10;103555.06;4969054;28;20039;-81
2022/01/24 11:43:51;;;;;;;8.27;7.25;;;;;;;17.91;52.88;103549.00;4968212;28;20027;-80
2022/01/24 11:46:31;;;;;;;7.65;6.95;;;;;;;17.93;52.91;103549.94;4963785;28;20027;-81
2022/01/24 11:49:27;;;;;;;7.43;6.72;;;;;;;17.93;52.46;103549.94;4966546;28;20058;-81
2022/01/24 11:52:11;;;;;;;7.75;6.85;;;;;;;17.95;52.82;103552.59;4967197;28;20027;-81
2022/01/24 11:57:14;;;;;;;;;;;;;;;17.96;52.46;103560.44;4965197;29;20369;-80
2022/01/24 11:59:40;;;;;;;8.05;6.88;;;;;;;17.96;52.43;103544.81;4961907;29;19953;-80
2022/01/24 12:02:08;;;;;;;7.70;6.90;;;;;;;17.97;52.11;103556.13;4945095;29;20050;-80
2022/01/24 12:04:57;;;;;;;7.35;6.65;;;;;;;17.98;52.14;103553.56;4961531;28;20382;-79
2022/01/24 12:07:28;;;;;;;7.40;6.70;;;;;;;17.98;52.19;103552.69;4963294;28;20031;-84
2022/01/24 12:10:25;;;;;;;7.78;7.07;;;;;;;18.00;51.84;103540.59;4954558;29;20068;-83
2022/01/24 12:13:01;;;;;;;7.90;7.10;;;;;;;17.99;52.10;103541.44;4975895;28;20031;-83
2022/01/24 12:15:36;;;;;;;8.25;7.07;;;;;;;18.00;52.09;103551.88;4973782;28;20054;-84
2022/01/24 12:18:02;;;;;;;7.38;6.68;;;;;;;18.00;52.00;103548.41;4974091;28;20030;-83
2022/01/24 12:20:31;;;;;;;7.80;7.03;;;;;;;18.02;51.95;103544.13;4956400;29;20062;-84
2022/01/24 12:23:16;;;;;;;7.82;7.03;;;;;;;18.01;51.91;103538.03;4974815;28;20046;-84
2022/01/24 12:25:57;;;;;;;7.80;7.10;;;;;;;18.02;51.82;103539.78;4974993;28;20031;-84
2022/01/24 12:28:24;;;;;;;7.20;6.50;;;;;;;18.04;51.89;103538.13;4958505;29;20019;-84
2022/01/24 12:31:04;;;;;;;7.40;6.70;;;;;;;18.04;51.65;103535.50;4974744;28;20007;-84
2022/01/24 12:33:42;;;;;;;7.65;6.95;;;;;;;18.04;51.75;103535.50;4976120;28;20122;-83
2022/01/24 12:36:14;;;;;;;6.97;6.28;;;;;;;18.04;51.65;103535.50;4975608;28;20055;-83
2022/01/24 12:38:47;;;;;;;7.60;6.90;;;;;;;18.05;51.67;103536.38;4960297;29;20034;-84
2022/01/24 12:41:30;;;;;;;7.95;7.15;;;;;;;18.04;51.64;103534.63;4974770;28;20055;-83
2022/01/24 12:44:12;;;;;;;8.40;7.60;;;;;;;18.03;52.03;103532.84;4973775;28;20047;-82
2022/01/24 12:46:38;;;;;;;8.27;7.47;;;;;;;18.01;51.75;103526.75;4962513;29;20097;-83
2022/01/24 12:49:06;;;;;;;8.73;7.05;;;;;;;18.00;51.75;103523.22;4959768;29;20035;-83
2022/01/24 12:51:38;;;;;;;8.07;7.38;;;;;;;18.00;51.92;103530.16;4975930;28;20023;-83
2022/01/24 12:54:07;;;;;;;8.00;7.20;;;;;;;18.00;51.99;103519.75;4976109;29;20027;-83
2022/01/24 12:56:34;;;;;;;8.38;7.57;;;;;;;17.99;52.01;103520.59;4974524;28;20095;-82
2022/01/24 12:59:35;;;;;;;8.40;7.60;;;;;;;18.01;51.88;103516.31;4962135;28;20037;-84
2022/01/24 13:02:04;;;;;;;8.23;7.43;;;;;;;18.02;51.81;103523.28;4974189;28;20023;-83
2022/01/24 13:04:40;;;;;;;9.70;8.48;;;;;;;18.00;51.71;103512.81;4974041;29;20031;-83
2022/01/24 13:07:11;;;;;;;8.82;8.02;;;;;;;18.03;51.59;103514.59;4966560;29;20090;-84
2022/01/24 13:09:45;;;;;;;8.70;7.88;;;;;;;18.02;52.01;103513.72;4956330;28;20422;-83
2022/01/24 13:12:31;;;;;;;9.30;8.45;;;;;;;18.04;51.59;103517.28;4970343;29;20047;-83
2022/01/24 13:15:23;;;;;;;8.90;8.00;;;;;;;18.06;51.54;103504.31;4937263;29;20067;-84
2022/01/24 13:21:16;;;;;;;9.13;8.23;;;;;;;18.07;51.65;103499.16;4952920;29;20046;-83
2022/01/24 13:24:09;;;;;;;8.27;7.47;;;;;;;18.05;51.51;103495.59;4952559;29;20051;-83
2022/01/24 13:26:45;;;;;;;9.40;8.50;;;;;;;18.07;51.54;103499.16;4935594;29;20099;-84
2022/01/24 13:29:40;;;;;;;8.48;7.68;;;;;;;18.07;51.43;103506.97;4950596;29;20042;-84
2022/01/24 13:33:08;;;;;;;8.68;7.80;;;;;;;18.09;51.45;103496.56;4951544;29;20047;-84
2022/01/24 13:36:01;;;;;;;8.23;7.43;;;;;;;18.08;51.20;103493.09;4914189;29;20033;-84
2022/01/24 13:38:55;;;;;;;8.40;7.60;;;;;;;18.07;51.29;103491.34;4875085;29;20066;-84
2022/01/24 13:41:46;;;;;;;8.15;7.40;;;;;;;18.08;51.25;103487.88;4859137;29;20033;-84
2022/01/24 13:44:40;;;;;;;8.65;7.85;;;;;;;18.08;51.23;103482.66;4875917;29;20066;-84
2022/01/24 13:47:32;;;;;;;8.27;7.47;;;;;;;18.10;51.53;103485.31;4852631;29;20041;-83
2022/01/24 13:56:26;;;;;;;8.23;7.30;;;;;;;18.11;51.20;103478.38;4850398;29;20073;-84
2022/01/24 13:59:29;;;;;;;8.25;7.45;;;;;;;18.11;51.23;103478.38;4860516;29;20041;-84
2022/01/24 14:02:16;;;;;;;8.82;7.93;;;;;;;18.11;51.09;103479.25;4880378;29;20045;-84
2022/01/24 14:04:46;;;;;;;8.57;7.78;;;;;;;18.12;51.03;103481.03;4879177;29;20057;-84
2022/01/24 14:07:41;;;;;;;8.50;7.70;;;;;;;18.11;51.20;103475.78;4917217;29;20036;-80
2022/01/24 14:10:35;;;;;;;8.90;8.00;;;;;;;18.12;51.17;103483.66;4889884;29;20511;-83
2022/01/24 14:13:07;;;;;;;8.02;7.22;;;;;;;18.11;50.96;103475.78;4898578;29;20037;-84